sensor_id;sensor_type;location;lat;lon;timestamp;temperature;humidity
15409;DHT22;7803;48.130;13.788;2023-06-10T00:02:26;23.30;94.10
15409;DHT22;7803;48.130;13.788;2023-06-10T00:05:28;23.30;94.10
15409;DHT22;7803;48.130;13.788;2023-06-10T00:08:33;23.20;94.00
15409;DHT22;7803;48.130;13.788;2023-06-10T00:11:35;23.30;94.10
15409;DHT22;7803;48.130;13.788;2023-06-10T00:14:38;23.20;94.00
15409;DHT22;7803;48.130;13.788;2023-06-10T00:17:40;23.20;94.00
15409;DHT22;7803;48.130;13.788;2023-06-10T00:20:43;23.30;94.10
15409;DHT22;7803;48.130;13.788;2023-06-10T00:23:46;23.20;94.10
15409;DHT22;7803;48.130;13.788;2023-06-10T00:26:48;23.20;94.00
15409;DHT22;7803;48.130;13.788;2023-06-10T00:29:50;23.20;94.00
15409;DHT22;7803;48.130;13.788;2023-06-10T00:32:52;23.20;94.00
15409;DHT22;7803;48.130;13.788;2023-06-10T00:35:54;23.20;94.00
15409;DHT22;7803;48.130;13.788;2023-06-10T00:38:57;23.30;94.00
15409;DHT22;7803;48.130;13.788;2023-06-10T00:41:59;23.20;94.00
15409;DHT22;7803;48.130;13.788;2023-06-10T00:45:01;23.20;93.90
15409;DHT22;7803;48.130;13.788;2023-06-10T00:48:04;23.20;94.00
15409;DHT22;7803;48.130;13.788;2023-06-10T00:51:06;23.20;94.00
15409;DHT22;7803;48.130;13.788;2023-06-10T00:54:11;23.20;94.00
15409;DHT22;7803;48.130;13.788;2023-06-10T00:57:14;23.20;94.00
15409;DHT22;7803;48.130;13.788;2023-06-10T01:00:16;23.20;94.00
15409;DHT22;7803;48.130;13.788;2023-06-10T01:03:18;23.20;93.90
15409;DHT22;7803;48.130;13.788;2023-06-10T01:06:27;23.20;93.90
15409;DHT22;7803;48.130;13.788;2023-06-10T01:09:40;23.20;94.00
15409;DHT22;7803;48.130;13.788;2023-06-10T01:12:46;23.20;93.90
15409;DHT22;7803;48.130;13.788;2023-06-10T01:15:51;23.30;94.00
15409;DHT22;7803;48.130;13.788;2023-06-10T01:18:53;23.20;94.00
15409;DHT22;7803;48.130;13.788;2023-06-10T01:21:57;23.20;94.00
15409;DHT22;7803;48.130;13.788;2023-06-10T01:25:01;23.20;94.00
15409;DHT22;7803;48.130;13.788;2023-06-10T01:28:07;23.20;93.90
15409;DHT22;7803;48.130;13.788;2023-06-10T01:31:16;23.20;93.80
15409;DHT22;7803;48.130;13.788;2023-06-10T01:34:23;23.20;93.80
15409;DHT22;7803;48.130;13.788;2023-06-10T01:37:27;23.20;93.90
15409;DHT22;7803;48.130;13.788;2023-06-10T01:40:31;23.20;93.90
15409;DHT22;7803;48.130;13.788;2023-06-10T01:43:34;23.20;93.90
15409;DHT22;7803;48.130;13.788;2023-06-10T01:46:36;23.20;93.90
15409;DHT22;7803;48.130;13.788;2023-06-10T01:49:38;23.20;93.90
15409;DHT22;7803;48.130;13.788;2023-06-10T01:52:41;23.20;93.90
15409;DHT22;7803;48.130;13.788;2023-06-10T01:55:43;23.20;93.90
15409;DHT22;7803;48.130;13.788;2023-06-10T01:58:45;23.20;93.80
15409;DHT22;7803;48.130;13.788;2023-06-10T02:01:47;23.20;94.30
15409;DHT22;7803;48.130;13.788;2023-06-10T02:04:49;23.20;93.90
15409;DHT22;7803;48.130;13.788;2023-06-10T02:07:52;23.20;93.90
15409;DHT22;7803;48.130;13.788;2023-06-10T02:10:54;23.20;93.90
15409;DHT22;7803;48.130;13.788;2023-06-10T02:13:56;23.20;93.90
15409;DHT22;7803;48.130;13.788;2023-06-10T02:16:58;23.20;93.90
15409;DHT22;7803;48.130;13.788;2023-06-10T02:20:01;23.20;93.80
15409;DHT22;7803;48.130;13.788;2023-06-10T02:23:06;23.20;93.80
15409;DHT22;7803;48.130;13.788;2023-06-10T02:26:08;23.20;93.70
15409;DHT22;7803;48.130;13.788;2023-06-10T02:29:10;23.20;93.80
15409;DHT22;7803;48.130;13.788;2023-06-10T02:32:12;23.20;93.80
15409;DHT22;7803;48.130;13.788;2023-06-10T02:35:14;23.20;93.80
15409;DHT22;7803;48.130;13.788;2023-06-10T02:38:17;23.20;93.80
15409;DHT22;7803;48.130;13.788;2023-06-10T02:41:20;23.20;93.80
15409;DHT22;7803;48.130;13.788;2023-06-10T02:44:22;23.20;93.80
15409;DHT22;7803;48.130;13.788;2023-06-10T02:47:24;23.20;93.80
15409;DHT22;7803;48.130;13.788;2023-06-10T02:50:26;23.20;93.80
15409;DHT22;7803;48.130;13.788;2023-06-10T02:53:30;23.20;93.80
15409;DHT22;7803;48.130;13.788;2023-06-10T02:56:31;23.20;93.80
15409;DHT22;7803;48.130;13.788;2023-06-10T02:59:34;23.20;93.80
15409;DHT22;7803;48.130;13.788;2023-06-10T03:02:36;23.20;93.80
15409;DHT22;7803;48.130;13.788;2023-06-10T03:05:39;23.20;93.80
15409;DHT22;7803;48.130;13.788;2023-06-10T03:08:42;23.20;93.80
15409;DHT22;7803;48.130;13.788;2023-06-10T03:11:44;23.20;93.80
15409;DHT22;7803;48.130;13.788;2023-06-10T03:14:46;23.20;93.80
15409;DHT22;7803;48.130;13.788;2023-06-10T03:17:48;23.20;93.70
15409;DHT22;7803;48.130;13.788;2023-06-10T03:20:50;23.20;93.60
15409;DHT22;7803;48.130;13.788;2023-06-10T03:23:53;23.20;93.60
15409;DHT22;7803;48.130;13.788;2023-06-10T03:26:56;23.20;93.70
15409;DHT22;7803;48.130;13.788;2023-06-10T03:29:58;23.20;93.70
15409;DHT22;7803;48.130;13.788;2023-06-10T03:33:00;23.20;93.70
15409;DHT22;7803;48.130;13.788;2023-06-10T03:36:02;23.20;94.10
15409;DHT22;7803;48.130;13.788;2023-06-10T03:39:05;23.20;93.70
15409;DHT22;7803;48.130;13.788;2023-06-10T03:42:07;23.20;93.70
15409;DHT22;7803;48.130;13.788;2023-06-10T03:45:10;23.20;93.70
15409;DHT22;7803;48.130;13.788;2023-06-10T03:48:12;23.20;93.70
15409;DHT22;7803;48.130;13.788;2023-06-10T03:51:14;23.20;93.70
15409;DHT22;7803;48.130;13.788;2023-06-10T03:54:17;23.20;93.70
15409;DHT22;7803;48.130;13.788;2023-06-10T03:57:19;23.20;93.80
15409;DHT22;7803;48.130;13.788;2023-06-10T04:00:21;23.20;93.80
15409;DHT22;7803;48.130;13.788;2023-06-10T04:03:23;23.20;93.70
15409;DHT22;7803;48.130;13.788;2023-06-10T04:06:26;23.20;93.80
15409;DHT22;7803;48.130;13.788;2023-06-10T04:09:31;23.20;93.70
15409;DHT22;7803;48.130;13.788;2023-06-10T04:12:33;23.20;93.70
15409;DHT22;7803;48.130;13.788;2023-06-10T04:15:35;23.20;93.70
15409;DHT22;7803;48.130;13.788;2023-06-10T04:18:37;23.20;93.70
15409;DHT22;7803;48.130;13.788;2023-06-10T04:21:39;23.20;93.80
15409;DHT22;7803;48.130;13.788;2023-06-10T04:24:42;23.20;93.80
15409;DHT22;7803;48.130;13.788;2023-06-10T04:27:44;23.20;93.70
15409;DHT22;7803;48.130;13.788;2023-06-10T04:30:46;23.20;93.80
15409;DHT22;7803;48.130;13.788;2023-06-10T04:33:48;23.20;93.80
15409;DHT22;7803;48.130;13.788;2023-06-10T04:36:50;23.20;93.80
15409;DHT22;7803;48.130;13.788;2023-06-10T04:39:53;23.20;93.80
15409;DHT22;7803;48.130;13.788;2023-06-10T04:42:56;23.20;93.80
15409;DHT22;7803;48.130;13.788;2023-06-10T04:45:58;23.20;93.80
15409;DHT22;7803;48.130;13.788;2023-06-10T04:49:00;23.20;93.80
15409;DHT22;7803;48.130;13.788;2023-06-10T04:52:02;23.20;93.80
15409;DHT22;7803;48.130;13.788;2023-06-10T04:55:07;23.20;93.80
15409;DHT22;7803;48.130;13.788;2023-06-10T04:58:10;23.20;93.80
15409;DHT22;7803;48.130;13.788;2023-06-10T05:01:12;23.30;93.80
15409;DHT22;7803;48.130;13.788;2023-06-10T05:04:14;23.30;93.80
15409;DHT22;7803;48.130;13.788;2023-06-10T05:07:16;23.30;93.80
15409;DHT22;7803;48.130;13.788;2023-06-10T05:10:19;23.30;93.80
15409;DHT22;7803;48.130;13.788;2023-06-10T05:13:21;23.30;93.80
15409;DHT22;7803;48.130;13.788;2023-06-10T05:16:23;23.30;93.80
15409;DHT22;7803;48.130;13.788;2023-06-10T05:19:25;23.20;93.70
15409;DHT22;7803;48.130;13.788;2023-06-10T05:22:28;23.30;93.80
15409;DHT22;7803;48.130;13.788;2023-06-10T05:25:32;23.30;93.80
15409;DHT22;7803;48.130;13.788;2023-06-10T05:28:34;23.30;93.70
15409;DHT22;7803;48.130;13.788;2023-06-10T05:31:36;23.30;93.70
15409;DHT22;7803;48.130;13.788;2023-06-10T05:34:38;23.30;93.80
15409;DHT22;7803;48.130;13.788;2023-06-10T05:37:40;23.30;93.80
15409;DHT22;7803;48.130;13.788;2023-06-10T05:40:44;23.30;94.20
15409;DHT22;7803;48.130;13.788;2023-06-10T05:43:46;23.30;93.70
15409;DHT22;7803;48.130;13.788;2023-06-10T05:46:48;23.30;93.70
15409;DHT22;7803;48.130;13.788;2023-06-10T05:49:50;23.30;93.70
15409;DHT22;7803;48.130;13.788;2023-06-10T05:52:52;23.40;93.80
15409;DHT22;7803;48.130;13.788;2023-06-10T05:55:56;23.40;93.80
15409;DHT22;7803;48.130;13.788;2023-06-10T05:58:59;23.30;93.80
15409;DHT22;7803;48.130;13.788;2023-06-10T06:02:01;23.30;93.70
15409;DHT22;7803;48.130;13.788;2023-06-10T06:05:03;23.30;93.70
15409;DHT22;7803;48.130;13.788;2023-06-10T06:08:05;23.30;93.70
15409;DHT22;7803;48.130;13.788;2023-06-10T06:11:09;23.40;93.70
15409;DHT22;7803;48.130;13.788;2023-06-10T06:14:11;23.30;93.70
15409;DHT22;7803;48.130;13.788;2023-06-10T06:17:12;23.40;93.70
15409;DHT22;7803;48.130;13.788;2023-06-10T06:20:14;23.30;93.70
15409;DHT22;7803;48.130;13.788;2023-06-10T06:23:16;23.40;93.80
15409;DHT22;7803;48.130;13.788;2023-06-10T06:26:20;23.30;93.70
15409;DHT22;7803;48.130;13.788;2023-06-10T06:29:22;23.30;93.70
15409;DHT22;7803;48.130;13.788;2023-06-10T06:32:25;23.40;93.80
15409;DHT22;7803;48.130;13.788;2023-06-10T06:35:30;23.40;93.80
15409;DHT22;7803;48.130;13.788;2023-06-10T06:38:32;23.40;93.80
15409;DHT22;7803;48.130;13.788;2023-06-10T06:41:35;23.40;93.80
15409;DHT22;7803;48.130;13.788;2023-06-10T06:44:37;23.40;93.80
15409;DHT22;7803;48.130;13.788;2023-06-10T06:47:39;23.40;93.70
15409;DHT22;7803;48.130;13.788;2023-06-10T06:50:41;23.40;93.70
15409;DHT22;7803;48.130;13.788;2023-06-10T06:53:43;23.40;93.70
15409;DHT22;7803;48.130;13.788;2023-06-10T06:56:47;23.40;93.70
15409;DHT22;7803;48.130;13.788;2023-06-10T06:59:49;23.40;93.70
15409;DHT22;7803;48.130;13.788;2023-06-10T07:02:51;23.40;93.70
15409;DHT22;7803;48.130;13.788;2023-06-10T07:05:53;23.40;93.70
15409;DHT22;7803;48.130;13.788;2023-06-10T07:08:55;23.40;93.80
15409;DHT22;7803;48.130;13.788;2023-06-10T07:11:59;23.40;94.20
15409;DHT22;7803;48.130;13.788;2023-06-10T07:15:00;23.40;93.80
15409;DHT22;7803;48.130;13.788;2023-06-10T07:18:03;23.40;93.80
15409;DHT22;7803;48.130;13.788;2023-06-10T07:21:05;23.40;93.80
15409;DHT22;7803;48.130;13.788;2023-06-10T07:24:07;23.40;93.80
15409;DHT22;7803;48.130;13.788;2023-06-10T07:27:10;23.40;93.80
15409;DHT22;7803;48.130;13.788;2023-06-10T07:30:13;23.40;93.80
15409;DHT22;7803;48.130;13.788;2023-06-10T07:33:15;23.40;93.80
15409;DHT22;7803;48.130;13.788;2023-06-10T07:36:17;23.40;93.80
15409;DHT22;7803;48.130;13.788;2023-06-10T07:39:19;23.40;93.80
15409;DHT22;7803;48.130;13.788;2023-06-10T07:42:22;23.40;93.80
15409;DHT22;7803;48.130;13.788;2023-06-10T07:45:24;23.40;93.80
15409;DHT22;7803;48.130;13.788;2023-06-10T07:48:26;23.40;93.80
15409;DHT22;7803;48.130;13.788;2023-06-10T07:51:28;23.40;93.80
15409;DHT22;7803;48.130;13.788;2023-06-10T07:54:30;23.40;93.80
15409;DHT22;7803;48.130;13.788;2023-06-10T07:57:33;23.40;93.80
15409;DHT22;7803;48.130;13.788;2023-06-10T08:00:37;23.40;93.80
15409;DHT22;7803;48.130;13.788;2023-06-10T08:03:39;23.40;93.80
15409;DHT22;7803;48.130;13.788;2023-06-10T08:06:41;23.40;93.80
15409;DHT22;7803;48.130;13.788;2023-06-10T08:09:43;23.40;93.80
15409;DHT22;7803;48.130;13.788;2023-06-10T08:12:46;23.40;93.80
15409;DHT22;7803;48.130;13.788;2023-06-10T08:15:48;23.40;93.80
15409;DHT22;7803;48.130;13.788;2023-06-10T08:18:51;23.40;93.90
15409;DHT22;7803;48.130;13.788;2023-06-10T08:21:53;23.40;93.90
15409;DHT22;7803;48.130;13.788;2023-06-10T08:24:55;23.40;93.90
15409;DHT22;7803;48.130;13.788;2023-06-10T08:27:59;23.40;93.90
15409;DHT22;7803;48.130;13.788;2023-06-10T08:31:01;23.40;93.90
15409;DHT22;7803;48.130;13.788;2023-06-10T08:34:03;23.40;93.90
15409;DHT22;7803;48.130;13.788;2023-06-10T08:37:05;23.40;93.90
15409;DHT22;7803;48.130;13.788;2023-06-10T08:40:08;23.40;93.80
15409;DHT22;7803;48.130;13.788;2023-06-10T08:43:19;23.40;93.90
15409;DHT22;7803;48.130;13.788;2023-06-10T08:46:23;23.40;93.90
15409;DHT22;7803;48.130;13.788;2023-06-10T08:49:26;23.40;93.90
15409;DHT22;7803;48.130;13.788;2023-06-10T08:52:29;23.40;93.90
15409;DHT22;7803;48.130;13.788;2023-06-10T08:55:37;23.40;93.90
15409;DHT22;7803;48.130;13.788;2023-06-10T08:58:41;23.40;93.90
15409;DHT22;7803;48.130;13.788;2023-06-10T09:01:44;23.40;93.90
15409;DHT22;7803;48.130;13.788;2023-06-10T09:04:47;23.40;93.90
15409;DHT22;7803;48.130;13.788;2023-06-10T09:07:50;23.40;93.90
15409;DHT22;7803;48.130;13.788;2023-06-10T09:10:53;23.40;93.90
15409;DHT22;7803;48.130;13.788;2023-06-10T09:13:56;23.40;94.00
15409;DHT22;7803;48.130;13.788;2023-06-10T09:16:58;23.40;93.90
15409;DHT22;7803;48.130;13.788;2023-06-10T09:20:00;23.40;93.90
15409;DHT22;7803;48.130;13.788;2023-06-10T09:23:03;23.40;94.00
15409;DHT22;7803;48.130;13.788;2023-06-10T09:26:08;23.40;94.00
15409;DHT22;7803;48.130;13.788;2023-06-10T09:29:13;23.40;93.90
15409;DHT22;7803;48.130;13.788;2023-06-10T09:32:15;23.40;93.90
15409;DHT22;7803;48.130;13.788;2023-06-10T09:35:18;23.40;93.90
15409;DHT22;7803;48.130;13.788;2023-06-10T09:38:22;23.40;93.90
15409;DHT22;7803;48.130;13.788;2023-06-10T09:41:32;23.40;93.90
15409;DHT22;7803;48.130;13.788;2023-06-10T09:44:35;23.40;93.90
15409;DHT22;7803;48.130;13.788;2023-06-10T09:47:37;23.40;93.90
15409;DHT22;7803;48.130;13.788;2023-06-10T09:50:42;23.40;94.00
15409;DHT22;7803;48.130;13.788;2023-06-10T09:53:48;23.40;94.00
15409;DHT22;7803;48.130;13.788;2023-06-10T09:56:52;23.40;94.00
15409;DHT22;7803;48.130;13.788;2023-06-10T09:59:55;23.40;94.00
15409;DHT22;7803;48.130;13.788;2023-06-10T10:02:57;23.40;94.00
15409;DHT22;7803;48.130;13.788;2023-06-10T10:06:00;23.40;94.50
15409;DHT22;7803;48.130;13.788;2023-06-10T10:09:02;23.40;94.10
15409;DHT22;7803;48.130;13.788;2023-06-10T10:12:09;23.40;94.10
15409;DHT22;7803;48.130;13.788;2023-06-10T10:15:13;23.40;94.10
15409;DHT22;7803;48.130;13.788;2023-06-10T10:18:20;23.40;94.10
15409;DHT22;7803;48.130;13.788;2023-06-10T10:21:34;23.40;94.10
15409;DHT22;7803;48.130;13.788;2023-06-10T10:24:40;23.40;94.00
15409;DHT22;7803;48.130;13.788;2023-06-10T10:27:46;23.40;94.00
15409;DHT22;7803;48.130;13.788;2023-06-10T10:30:54;23.40;94.00
15409;DHT22;7803;48.130;13.788;2023-06-10T10:34:02;23.40;94.10
15409;DHT22;7803;48.130;13.788;2023-06-10T10:37:05;23.40;94.10
15409;DHT22;7803;48.130;13.788;2023-06-10T10:40:08;23.40;94.10
15409;DHT22;7803;48.130;13.788;2023-06-10T10:43:11;23.40;94.10
15409;DHT22;7803;48.130;13.788;2023-06-10T10:46:17;23.40;94.10
15409;DHT22;7803;48.130;13.788;2023-06-10T10:49:19;23.40;94.20
15409;DHT22;7803;48.130;13.788;2023-06-10T10:52:21;23.40;94.20
15409;DHT22;7803;48.130;13.788;2023-06-10T10:55:24;23.40;94.20
15409;DHT22;7803;48.130;13.788;2023-06-10T10:58:26;23.40;94.20
15409;DHT22;7803;48.130;13.788;2023-06-10T11:01:40;23.40;94.20
15409;DHT22;7803;48.130;13.788;2023-06-10T11:04:45;23.40;94.20
15409;DHT22;7803;48.130;13.788;2023-06-10T11:07:53;23.40;94.20
15409;DHT22;7803;48.130;13.788;2023-06-10T11:10:56;23.40;94.10
15409;DHT22;7803;48.130;13.788;2023-06-10T11:13:59;23.40;94.10
15409;DHT22;7803;48.130;13.788;2023-06-10T11:17:18;23.40;94.20
15409;DHT22;7803;48.130;13.788;2023-06-10T11:20:41;23.40;94.20
15409;DHT22;7803;48.130;13.788;2023-06-10T11:23:43;23.40;94.10
15409;DHT22;7803;48.130;13.788;2023-06-10T11:26:45;23.40;94.20
15409;DHT22;7803;48.130;13.788;2023-06-10T11:30:00;23.40;94.20
15409;DHT22;7803;48.130;13.788;2023-06-10T11:33:20;23.40;94.20
15409;DHT22;7803;48.130;13.788;2023-06-10T11:36:23;23.40;94.10
15409;DHT22;7803;48.130;13.788;2023-06-10T11:39:25;23.40;94.20
15409;DHT22;7803;48.130;13.788;2023-06-10T11:42:27;23.40;94.10
15409;DHT22;7803;48.130;13.788;2023-06-10T11:45:29;23.40;94.20
15409;DHT22;7803;48.130;13.788;2023-06-10T11:48:33;23.40;94.20
15409;DHT22;7803;48.130;13.788;2023-06-10T11:51:36;23.40;94.20
15409;DHT22;7803;48.130;13.788;2023-06-10T11:54:39;23.40;94.20
15409;DHT22;7803;48.130;13.788;2023-06-10T11:57:41;23.40;94.20
15409;DHT22;7803;48.130;13.788;2023-06-10T12:00:47;23.40;94.10
15409;DHT22;7803;48.130;13.788;2023-06-10T12:03:58;23.40;94.10
15409;DHT22;7803;48.130;13.788;2023-06-10T12:07:00;23.40;94.00
15409;DHT22;7803;48.130;13.788;2023-06-10T12:10:05;23.40;94.10
15409;DHT22;7803;48.130;13.788;2023-06-10T12:13:09;23.40;94.00
15409;DHT22;7803;48.130;13.788;2023-06-10T12:16:11;23.40;94.00
15409;DHT22;7803;48.130;13.788;2023-06-10T12:19:15;23.40;94.10
15409;DHT22;7803;48.130;13.788;2023-06-10T12:22:17;23.40;94.10
15409;DHT22;7803;48.130;13.788;2023-06-10T12:25:24;23.40;94.10
15409;DHT22;7803;48.130;13.788;2023-06-10T12:28:27;23.40;94.20
15409;DHT22;7803;48.130;13.788;2023-06-10T12:31:29;23.40;94.30
15409;DHT22;7803;48.130;13.788;2023-06-10T12:34:34;23.40;94.20
15409;DHT22;7803;48.130;13.788;2023-06-10T12:37:37;23.40;94.40
15409;DHT22;7803;48.130;13.788;2023-06-10T12:40:39;23.40;94.40
15409;DHT22;7803;48.130;13.788;2023-06-10T12:43:41;23.40;94.50
15409;DHT22;7803;48.130;13.788;2023-06-10T12:46:44;23.40;94.50
15409;DHT22;7803;48.130;13.788;2023-06-10T12:49:47;23.40;94.50
15409;DHT22;7803;48.130;13.788;2023-06-10T12:52:50;23.40;94.40
15409;DHT22;7803;48.130;13.788;2023-06-10T12:55:52;23.40;94.40
15409;DHT22;7803;48.130;13.788;2023-06-10T12:58:54;23.40;94.30
15409;DHT22;7803;48.130;13.788;2023-06-10T13:01:56;23.40;94.30
15409;DHT22;7803;48.130;13.788;2023-06-10T13:04:59;23.40;94.40
15409;DHT22;7803;48.130;13.788;2023-06-10T13:08:03;23.40;94.40
15409;DHT22;7803;48.130;13.788;2023-06-10T13:11:05;23.40;94.60
15409;DHT22;7803;48.130;13.788;2023-06-10T13:14:07;23.40;94.60
15409;DHT22;7803;48.130;13.788;2023-06-10T13:17:10;23.40;94.70
15409;DHT22;7803;48.130;13.788;2023-06-10T13:20:13;23.40;94.70
15409;DHT22;7803;48.130;13.788;2023-06-10T13:23:15;23.40;94.70
15409;DHT22;7803;48.130;13.788;2023-06-10T13:26:18;23.40;94.70
15409;DHT22;7803;48.130;13.788;2023-06-10T13:29:19;23.40;94.80
15409;DHT22;7803;48.130;13.788;2023-06-10T13:32:21;23.40;94.80
15409;DHT22;7803;48.130;13.788;2023-06-10T13:35:25;23.40;94.90
15409;DHT22;7803;48.130;13.788;2023-06-10T13:38:27;23.40;94.90
15409;DHT22;7803;48.130;13.788;2023-06-10T13:41:29;23.40;94.90
15409;DHT22;7803;48.130;13.788;2023-06-10T13:44:31;23.40;94.70
15409;DHT22;7803;48.130;13.788;2023-06-10T13:47:34;23.40;94.60
15409;DHT22;7803;48.130;13.788;2023-06-10T13:50:37;23.40;94.50
15409;DHT22;7803;48.130;13.788;2023-06-10T13:53:39;23.40;94.50
15409;DHT22;7803;48.130;13.788;2023-06-10T13:56:41;23.40;94.50
15409;DHT22;7803;48.130;13.788;2023-06-10T13:59:43;23.40;94.50
15409;DHT22;7803;48.130;13.788;2023-06-10T14:02:45;23.40;94.50
15409;DHT22;7803;48.130;13.788;2023-06-10T14:05:49;23.40;94.60
15409;DHT22;7803;48.130;13.788;2023-06-10T14:08:51;23.40;94.70
15409;DHT22;7803;48.130;13.788;2023-06-10T14:11:55;23.40;94.70
15409;DHT22;7803;48.130;13.788;2023-06-10T14:14:57;23.40;94.60
15409;DHT22;7803;48.130;13.788;2023-06-10T14:17:59;23.40;94.70
15409;DHT22;7803;48.130;13.788;2023-06-10T14:21:02;23.40;94.80
15409;DHT22;7803;48.130;13.788;2023-06-10T14:24:04;23.40;95.00
15409;DHT22;7803;48.130;13.788;2023-06-10T14:27:06;23.40;95.00
15409;DHT22;7803;48.130;13.788;2023-06-10T14:30:09;23.40;95.00
15409;DHT22;7803;48.130;13.788;2023-06-10T14:33:11;23.40;95.00
15409;DHT22;7803;48.130;13.788;2023-06-10T14:36:14;23.40;95.00
15409;DHT22;7803;48.130;13.788;2023-06-10T14:39:17;23.40;94.80
15409;DHT22;7803;48.130;13.788;2023-06-10T14:42:19;23.40;94.70
15409;DHT22;7803;48.130;13.788;2023-06-10T14:45:21;23.40;94.70
15409;DHT22;7803;48.130;13.788;2023-06-10T14:48:23;23.40;94.80
15409;DHT22;7803;48.130;13.788;2023-06-10T14:51:26;23.40;94.90
15409;DHT22;7803;48.130;13.788;2023-06-10T14:54:28;23.40;94.90
15409;DHT22;7803;48.130;13.788;2023-06-10T14:57:30;23.40;94.90
15409;DHT22;7803;48.130;13.788;2023-06-10T15:00:32;23.40;94.90
15409;DHT22;7803;48.130;13.788;2023-06-10T15:03:34;23.40;95.00
15409;DHT22;7803;48.130;13.788;2023-06-10T15:06:37;23.40;95.00
15409;DHT22;7803;48.130;13.788;2023-06-10T15:09:39;23.40;95.00
15409;DHT22;7803;48.130;13.788;2023-06-10T15:12:41;23.40;95.00
15409;DHT22;7803;48.130;13.788;2023-06-10T15:15:43;23.40;95.00
15409;DHT22;7803;48.130;13.788;2023-06-10T15:18:45;23.40;95.00
15409;DHT22;7803;48.130;13.788;2023-06-10T15:21:49;23.40;95.00
15409;DHT22;7803;48.130;13.788;2023-06-10T15:24:51;23.40;95.00
15409;DHT22;7803;48.130;13.788;2023-06-10T15:27:53;23.40;95.00
15409;DHT22;7803;48.130;13.788;2023-06-10T15:30:55;23.40;94.80
15409;DHT22;7803;48.130;13.788;2023-06-10T15:33:58;23.40;94.80
15409;DHT22;7803;48.130;13.788;2023-06-10T15:37:01;23.40;94.80
15409;DHT22;7803;48.130;13.788;2023-06-10T15:40:04;23.40;94.80
15409;DHT22;7803;48.130;13.788;2023-06-10T15:43:07;23.40;94.90
15409;DHT22;7803;48.130;13.788;2023-06-10T15:46:08;23.40;94.90
15409;DHT22;7803;48.130;13.788;2023-06-10T15:49:11;23.40;94.80
15409;DHT22;7803;48.130;13.788;2023-06-10T15:52:14;23.40;94.90
15409;DHT22;7803;48.130;13.788;2023-06-10T15:55:16;23.40;95.00
15409;DHT22;7803;48.130;13.788;2023-06-10T15:58:18;23.40;95.00
15409;DHT22;7803;48.130;13.788;2023-06-10T16:01:20;23.40;95.00
15409;DHT22;7803;48.130;13.788;2023-06-10T16:04:22;23.40;95.00
15409;DHT22;7803;48.130;13.788;2023-06-10T16:07:26;23.40;95.00
15409;DHT22;7803;48.130;13.788;2023-06-10T16:10:28;23.40;94.90
15409;DHT22;7803;48.130;13.788;2023-06-10T16:13:30;23.40;94.90
15409;DHT22;7803;48.130;13.788;2023-06-10T16:16:32;23.40;94.90
15409;DHT22;7803;48.130;13.788;2023-06-10T16:19:34;23.40;94.80
15409;DHT22;7803;48.130;13.788;2023-06-10T16:22:37;23.40;94.80
15409;DHT22;7803;48.130;13.788;2023-06-10T16:25:39;23.40;94.80
15409;DHT22;7803;48.130;13.788;2023-06-10T16:28:41;23.40;95.10
15409;DHT22;7803;48.130;13.788;2023-06-10T16:31:43;23.40;94.60
15409;DHT22;7803;48.130;13.788;2023-06-10T16:34:45;23.40;94.70
15409;DHT22;7803;48.130;13.788;2023-06-10T16:37:49;23.40;94.80
15409;DHT22;7803;48.130;13.788;2023-06-10T16:40:51;23.40;94.80
15409;DHT22;7803;48.130;13.788;2023-06-10T16:43:53;23.40;94.80
15409;DHT22;7803;48.130;13.788;2023-06-10T16:46:55;23.40;94.80
15409;DHT22;7803;48.130;13.788;2023-06-10T16:49:57;23.40;94.90
15409;DHT22;7803;48.130;13.788;2023-06-10T16:53:00;23.40;94.90
15409;DHT22;7803;48.130;13.788;2023-06-10T16:56:02;23.40;94.80
15409;DHT22;7803;48.130;13.788;2023-06-10T16:59:04;23.40;94.90
15409;DHT22;7803;48.130;13.788;2023-06-10T17:02:07;23.40;94.90
15409;DHT22;7803;48.130;13.788;2023-06-10T17:05:09;23.40;94.90
15409;DHT22;7803;48.130;13.788;2023-06-10T17:08:12;23.40;95.00
15409;DHT22;7803;48.130;13.788;2023-06-10T17:11:14;23.40;95.00
15409;DHT22;7803;48.130;13.788;2023-06-10T17:14:16;23.40;95.30
15409;DHT22;7803;48.130;13.788;2023-06-10T17:17:18;23.40;94.80
15409;DHT22;7803;48.130;13.788;2023-06-10T17:20:20;23.40;94.90
15409;DHT22;7803;48.130;13.788;2023-06-10T17:23:24;23.40;94.90
15409;DHT22;7803;48.130;13.788;2023-06-10T17:26:26;23.40;94.90
15409;DHT22;7803;48.130;13.788;2023-06-10T17:29:28;23.40;94.90
15409;DHT22;7803;48.130;13.788;2023-06-10T17:32:32;23.40;94.90
15409;DHT22;7803;48.130;13.788;2023-06-10T17:35:34;23.40;94.90
15409;DHT22;7803;48.130;13.788;2023-06-10T17:38:37;23.40;94.80
15409;DHT22;7803;48.130;13.788;2023-06-10T17:41:39;23.40;94.70
15409;DHT22;7803;48.130;13.788;2023-06-10T17:44:41;23.40;94.70
15409;DHT22;7803;48.130;13.788;2023-06-10T17:47:43;23.40;94.60
15409;DHT22;7803;48.130;13.788;2023-06-10T17:50:45;23.40;94.60
15409;DHT22;7803;48.130;13.788;2023-06-10T17:53:48;23.40;94.60
15409;DHT22;7803;48.130;13.788;2023-06-10T17:56:51;23.40;94.60
15409;DHT22;7803;48.130;13.788;2023-06-10T17:59:53;23.40;94.60
15409;DHT22;7803;48.130;13.788;2023-06-10T18:02:55;23.40;94.50
15409;DHT22;7803;48.130;13.788;2023-06-10T18:05:56;23.40;94.60
15409;DHT22;7803;48.130;13.788;2023-06-10T18:09:00;23.40;94.80
15409;DHT22;7803;48.130;13.788;2023-06-10T18:12:03;23.40;94.70
15409;DHT22;7803;48.130;13.788;2023-06-10T18:15:06;23.40;94.60
15409;DHT22;7803;48.130;13.788;2023-06-10T18:18:08;23.40;94.70
15409;DHT22;7803;48.130;13.788;2023-06-10T18:21:10;23.40;94.60
15409;DHT22;7803;48.130;13.788;2023-06-10T18:24:14;23.40;94.60
15409;DHT22;7803;48.130;13.788;2023-06-10T18:27:16;23.40;94.60
15409;DHT22;7803;48.130;13.788;2023-06-10T18:30:18;23.40;94.50
15409;DHT22;7803;48.130;13.788;2023-06-10T18:33:20;23.40;94.50
15409;DHT22;7803;48.130;13.788;2023-06-10T18:36:22;23.40;94.40
15409;DHT22;7803;48.130;13.788;2023-06-10T18:39:25;23.40;94.30
15409;DHT22;7803;48.130;13.788;2023-06-10T18:42:27;23.40;94.30
15409;DHT22;7803;48.130;13.788;2023-06-10T18:45:29;23.40;94.30
15409;DHT22;7803;48.130;13.788;2023-06-10T18:48:31;23.40;94.30
15409;DHT22;7803;48.130;13.788;2023-06-10T18:51:33;23.40;94.30
15409;DHT22;7803;48.130;13.788;2023-06-10T18:54:37;23.40;94.30
15409;DHT22;7803;48.130;13.788;2023-06-10T18:57:39;23.40;94.40
15409;DHT22;7803;48.130;13.788;2023-06-10T19:00:41;23.40;94.50
15409;DHT22;7803;48.130;13.788;2023-06-10T19:03:43;23.40;94.50
15409;DHT22;7803;48.130;13.788;2023-06-10T19:06:45;23.40;94.60
15409;DHT22;7803;48.130;13.788;2023-06-10T19:09:48;23.40;94.60
15409;DHT22;7803;48.130;13.788;2023-06-10T19:12:50;23.40;94.50
15409;DHT22;7803;48.130;13.788;2023-06-10T19:15:52;23.40;94.50